Time;durP1;ratioP1;P1;durP2;ratioP2;P2;SDS_P1;SDS_P2;PMS_P1;PMS_P2;Temp;Humidity;BMP_temperature;BMP_pressure;BME280_temperature;BME280_humidity;BME280_pressure;Samples;Min_cycle;Max_cycle;Signal;HPM_P1;HPM_P2
2023/09/29 00:00:35;;;;;;;14.47;3.90;;;17.60;1.00;;;;;;5044536;28;20271;-59
2023/09/29 00:03:07;;;;;;;13.20;3.63;;;17.60;1.00;;;;;;5048112;28;20848;-59
2023/09/29 00:05:36;;;;;;;14.47;4.00;;;17.50;1.00;;;;;;5049836;28;20220;-59
2023/09/29 00:08:06;;;;;;;7.40;3.37;;;17.50;1.00;;;;;;5046489;28;20694;-59
2023/09/29 00:10:39;;;;;;;15.70;3.97;;;17.50;1.00;;;;;;5046483;28;20221;-59
2023/09/29 00:13:08;;;;;;;10.27;3.50;;;17.50;1.00;;;;;;5046960;28;20683;-59
2023/09/29 00:15:37;;;;;;;12.67;3.97;;;17.60;1.00;;;;;;5045076;28;20725;-59
2023/09/29 00:18:08;;;;;;;10.50;3.03;;;17.50;1.00;;;;;;5045053;28;20232;-59
2023/09/29 00:20:37;;;;;;;14.80;3.50;;;17.50;1.00;;;;;;5042272;28;20287;-59
2023/09/29 00:23:05;;;;;;;15.80;3.97;;;17.60;1.00;;;;;;5043288;28;20219;-58
2023/09/29 00:25:36;;;;;;;9.37;3.43;;;17.60;1.00;;;;;;5044348;28;20235;-58
2023/09/29 00:28:05;;;;;;;11.60;3.50;;;17.50;1.00;;;;;;5040564;28;20215;-58
2023/09/29 00:30:33;;;;;;;15.33;3.40;;;17.50;2.00;;;;;;5044430;28;20726;-58
2023/09/29 00:33:03;;;;;;;11.07;3.40;;;17.60;1.00;;;;;;5047557;28;20234;-58
2023/09/29 00:35:33;;;;;;;11.63;3.27;;;17.60;1.00;;;;;;5051318;28;20584;-58
2023/09/29 00:38:02;;;;;;;9.10;3.33;;;17.60;1.00;;;;;;5044526;28;20708;-59
2023/09/29 00:40:30;;;;;;;8.47;3.60;;;17.60;1.00;;;;;;5041453;28;20213;-58
2023/09/29 00:43:00;;;;;;;10.43;3.33;;;17.60;1.00;;;;;;5049408;28;20192;-58
2023/09/29 00:45:29;;;;;;;4.60;2.93;;;17.60;1.00;;;;;;5050965;28;20223;-58
2023/09/29 00:48:03;;;;;;;9.97;2.80;;;17.60;1.00;;;;;;5046215;28;20231;-58
2023/09/29 00:50:37;;;;;;;7.03;3.37;;;17.60;1.00;;;;;;5048436;28;20227;-59
2023/09/29 00:53:11;;;;;;;9.50;3.17;;;17.60;1.00;;;;;;5051525;28;20243;-59
2023/09/29 00:55:41;;;;;;;10.80;2.90;;;17.50;1.00;;;;;;5048961;28;20570;-58
2023/09/29 00:58:12;;;;;;;9.57;2.80;;;17.50;1.00;;;;;;5044203;28;20189;-59
2023/09/29 01:00:41;;;;;;;9.27;3.23;;;17.50;2.20;;;;;;5045328;28;20240;-59
2023/09/29 01:03:13;;;;;;;9.97;2.90;;;17.50;5.00;;;;;;5049029;28;20216;-59
2023/09/29 01:05:46;;;;;;;8.97;2.87;;;17.60;1.00;;;;;;5048402;28;20275;-59
2023/09/29 01:08:17;;;;;;;7.47;3.43;;;17.60;1.00;;;;;;5044109;28;20224;-59
2023/09/29 01:10:46;;;;;;;7.83;2.80;;;17.60;1.00;;;;;;5046729;28;20225;-59
2023/09/29 01:13:15;;;;;;;6.03;3.20;;;17.60;1.00;;;;;;5045199;28;20208;-58
2023/09/29 01:15:43;;;;;;;7.30;3.00;;;17.60;1.00;;;;;;5046228;28;20196;-59
2023/09/29 01:18:12;;;;;;;8.07;3.00;;;17.60;2.70;;;;;;5048028;28;20282;-59
2023/09/29 01:20:44;;;;;;;8.30;3.10;;;17.60;3.00;;;;;;5046381;28;20286;-59
2023/09/29 01:23:13;;;;;;;6.63;3.03;;;17.60;2.10;;;;;;5044102;28;20746;-59
2023/09/29 01:25:43;;;;;;;14.07;3.20;;;17.60;4.10;;;;;;5042881;28;20227;-58
2023/09/29 01:28:12;;;;;;;8.10;2.87;;;17.60;3.60;;;;;;5046276;28;20193;-59
2023/09/29 01:30:42;;;;;;;5.47;2.90;;;17.70;2.20;;;;;;5050356;28;20286;-59
2023/09/29 01:33:12;;;;;;;5.90;2.53;;;17.60;1.00;;;;;;5048027;28;20222;-59
2023/09/29 01:35:43;;;;;;;7.03;2.73;;;17.70;1.00;;;;;;5052594;28;20230;-58
2023/09/29 01:38:13;;;;;;;6.00;2.87;;;17.70;4.40;;;;;;5048685;28;20710;-59
2023/09/29 01:40:45;;;;;;;8.70;2.67;;;17.60;4.80;;;;;;5052066;28;20260;-59
2023/09/29 01:43:13;;;;;;;12.27;3.13;;;17.60;7.30;;;;;;5047293;28;20287;-58
2023/09/29 01:45:41;;;;;;;7.63;3.30;;;17.70;8.20;;;;;;5044767;28;20221;-59
2023/09/29 01:48:11;;;;;;;5.90;2.93;;;17.70;4.50;;;;;;5044079;28;20628;-59
2023/09/29 01:50:40;;;;;;;5.70;2.93;;;17.70;6.00;;;;;;5045711;28;20691;-59
2023/09/29 01:53:12;;;;;;;4.17;2.80;;;17.70;7.20;;;;;;5046060;28;20698;-58
2023/09/29 01:55:41;;;;;;;9.93;3.43;;;17.70;8.80;;;;;;5043348;28;20240;-58
2023/09/29 01:58:10;;;;;;;10.70;3.63;;;17.70;12.20;;;;;;5046326;28;20523;-59
2023/09/29 02:00:38;;;;;;;6.93;3.43;;;17.70;10.00;;;;;;5042989;28;20221;-59
2023/09/29 02:03:07;;;;;;;4.90;3.13;;;17.80;10.90;;;;;;5047769;28;20319;-59
2023/09/29 02:05:36;;;;;;;7.77;3.47;;;17.80;10.20;;;;;;5044512;28;20656;-58
2023/09/29 02:08:06;;;;;;;6.50;3.83;;;17.80;13.30;;;;;;5050087;28;20225;-58
2023/09/29 02:10:35;;;;;;;7.43;3.83;;;17.80;8.90;;;;;;5046786;28;20540;-58
2023/09/29 02:13:05;;;;;;;6.20;3.47;;;17.90;13.80;;;;;;5045534;28;20206;-59
2023/09/29 02:15:35;;;;;;;6.33;3.57;;;17.90;14.70;;;;;;5045815;28;20235;-59
2023/09/29 02:18:05;;;;;;;6.87;3.57;;;17.90;11.80;;;;;;5043771;28;20703;-59
2023/09/29 02:20:35;;;;;;;7.17;3.80;;;17.90;13.60;;;;;;5045947;28;20224;-59
2023/09/29 02:23:05;;;;;;;7.70;4.10;;;18.00;13.20;;;;;;5044625;28;20248;-59
2023/09/29 02:25:33;;;;;;;9.93;4.00;;;18.00;16.80;;;;;;5043712;28;20694;-60
2023/09/29 02:28:02;;;;;;;7.37;3.67;;;18.00;17.30;;;;;;5048174;28;20189;-60
2023/09/29 02:30:31;;;;;;;6.03;3.70;;;18.00;13.40;;;;;;5047084;28;20216;-59
2023/09/29 02:33:00;;;;;;;8.83;4.20;;;18.00;20.00;;;;;;5045703;28;20714;-59
2023/09/29 02:35:29;;;;;;;6.97;3.90;;;18.10;22.60;;;;;;5046244;28;20220;-59
2023/09/29 02:37:57;;;;;;;10.07;3.80;;;18.10;22.10;;;;;;5045052;28;20216;-59
2023/09/29 02:40:28;;;;;;;7.57;3.87;;;18.10;25.10;;;;;;5050495;28;20216;-58
2023/09/29 02:42:57;;;;;;;6.10;4.17;;;18.10;28.20;;;;;;5044892;28;20644;-59
2023/09/29 02:45:25;;;;;;;9.87;3.90;;;18.20;27.60;;;;;;5044504;28;20213;-59
2023/09/29 02:47:56;;;;;;;10.63;4.10;;;18.20;30.10;;;;;;5048753;28;20226;-59
2023/09/29 02:50:25;;;;;;;8.33;4.07;;;18.10;35.90;;;;;;5045133;28;20254;-59
2023/09/29 02:52:54;;;;;;;6.37;3.63;;;18.20;34.60;;;;;;5048453;28;20229;-58
2023/09/29 02:55:23;;;;;;;7.00;4.00;;;18.20;37.60;;;;;;5043754;28;20224;-58
2023/09/29 02:57:52;;;;;;;8.73;4.47;;;18.30;36.00;;;;;;5046694;28;20200;-59
2023/09/29 03:00:23;;;;;;;7.10;3.90;;;18.30;41.90;;;;;;5041750;28;20224;-59
2023/09/29 03:02:52;;;;;;;5.13;3.90;;;18.30;44.50;;;;;;5040786;28;20270;-59
2023/09/29 03:05:23;;;;;;;5.93;3.53;;;18.30;46.10;;;;;;5049682;28;20224;-59
2023/09/29 03:07:51;;;;;;;6.23;3.60;;;18.30;51.20;;;;;;5045409;28;20575;-59
2023/09/29 03:10:25;;;;;;;9.70;3.70;;;18.40;53.80;;;;;;5048524;28;20189;-59
2023/09/29 03:12:56;;;;;;;5.37;3.53;;;18.40;51.70;;;;;;5048532;28;20689;-59
2023/09/29 03:15:26;;;;;;;5.43;3.60;;;18.50;52.90;;;;;;5047095;28;20228;-59
2023/09/29 03:17:55;;;;;;;7.13;3.60;;;18.50;56.40;;;;;;5043987;28;20286;-58
2023/09/29 03:20:29;;;;;;;6.23;3.50;;;18.50;62.00;;;;;;5044141;28;20236;-59
2023/09/29 03:23:00;;;;;;;6.10;3.40;;;18.50;68.40;;;;;;5043120;28;20251;-59
2023/09/29 03:25:29;;;;;;;7.30;3.57;;;18.60;71.60;;;;;;5041606;28;20244;-58
2023/09/29 03:27:59;;;;;;;5.80;3.50;;;18.60;73.50;;;;;;5048401;28;20192;-59
2023/09/29 03:30:28;;;;;;;5.00;3.80;;;18.60;70.00;;;;;;5048181;28;20232;-59
2023/09/29 03:32:57;;;;;;;5.57;3.47;;;18.70;76.30;;;;;;5044066;28;20595;-59
2023/09/29 03:35:26;;;;;;;5.23;3.37;;;18.70;80.60;;;;;;5042796;28;20227;-59
2023/09/29 03:37:55;;;;;;;6.80;3.53;;;18.70;82.10;;;;;;5043756;28;20330;-58
2023/09/29 03:40:26;;;;;;;4.00;3.23;;;18.80;82.80;;;;;;5038640;28;20532;-58
2023/09/29 03:42:55;;;;;;;5.53;3.47;;;18.80;84.40;;;;;;5039448;28;20597;-59
2023/09/29 03:45:23;;;;;;;4.10;3.30;;;18.90;84.40;;;;;;5046089;28;20312;-59
2023/09/29 03:47:52;;;;;;;3.67;3.37;;;18.90;87.50;;;;;;5048482;28;20217;-59
2023/09/29 03:50:20;;;;;;;4.17;3.20;;;18.90;89.70;;;;;;5046847;28;20220;-59
2023/09/29 03:52:49;;;;;;;4.97;3.27;;;18.90;91.00;;;;;;5043321;28;20225;-59
2023/09/29 03:55:19;;;;;;;3.63;3.30;;;18.90;93.20;;;;;;5043144;28;20189;-58
2023/09/29 03:57:48;;;;;;;5.83;3.40;;;18.90;95.70;;;;;;5043801;28;20197;-59
2023/09/29 04:00:18;;;;;;;4.30;3.37;;;18.80;96.70;;;;;;5042791;28;20229;-59
2023/09/29 04:02:50;;;;;;;5.03;2.90;;;18.90;99.90;;;;;;5044519;28;20229;-59
2023/09/29 04:05:20;;;;;;;5.57;3.30;;;19.00;98.80;;;;;;5041195;28;20220;-59
2023/09/29 04:07:49;;;;;;;6.97;3.00;;;19.00;99.30;;;;;;5042959;28;20256;-59
2023/09/29 04:10:20;;;;;;;3.57;3.27;;;19.00;99.90;;;;;;5044765;28;20608;-59
2023/09/29 04:12:49;;;;;;;5.10;3.03;;;19.00;99.90;;;;;;5043999;28;20204;-59
2023/09/29 04:15:18;;;;;;;4.27;3.40;;;19.00;99.90;;;;;;5046136;28;20232;-59
2023/09/29 04:17:46;;;;;;;3.67;3.00;;;19.00;99.90;;;;;;5051042;28;20233;-59
2023/09/29 04:20:16;;;;;;;4.03;3.53;;;18.90;99.90;;;;;;5049307;28;20358;-59
2023/09/29 04:22:46;;;;;;;9.00;3.87;;;19.00;99.90;;;;;;5045750;28;20573;-59
2023/09/29 04:25:16;;;;;;;3.67;3.17;;;19.00;99.90;;;;;;5050066;28;20184;-59
2023/09/29 04:27:46;;;;;;;4.33;3.40;;;19.10;99.90;;;;;;5049951;28;20193;-59
2023/09/29 04:30:14;;;;;;;9.17;3.27;;;19.10;99.90;;;;;;5048770;28;20228;-59
2023/09/29 04:32:42;;;;;;;4.30;3.33;;;19.10;99.90;;;;;;5056649;28;20319;-59
2023/09/29 04:35:11;;;;;;;3.97;3.37;;;19.10;99.90;;;;;;5044010;28;20228;-59
2023/09/29 04:37:40;;;;;;;5.13;3.80;;;19.10;99.90;;;;;;5047218;28;20289;-59
2023/09/29 04:40:09;;;;;;;3.90;3.50;;;19.00;99.90;;;;;;5047261;28;20663;-59
2023/09/29 04:42:39;;;;;;;4.60;3.23;;;19.10;99.90;;;;;;5046930;28;20351;-60
2023/09/29 04:45:10;;;;;;;3.80;3.47;;;19.10;99.90;;;;;;5048247;28;20707;-60
2023/09/29 04:47:38;;;;;;;4.47;3.50;;;19.10;99.90;;;;;;5049127;28;20221;-59
2023/09/29 04:50:11;;;;;;;3.57;3.30;;;19.10;99.90;;;;;;5048924;28;20212;-59
2023/09/29 04:52:39;;;;;;;5.80;3.37;;;19.20;99.90;;;;;;5049474;28;20235;-59
2023/09/29 04:55:08;;;;;;;6.50;3.10;;;19.20;99.90;;;;;;5050000;28;20284;-60
2023/09/29 04:57:37;;;;;;;3.13;3.03;;;19.20;99.90;;;;;;5052127;28;20221;-59
2023/09/29 05:00:09;;;;;;;5.47;3.87;;;19.20;99.90;;;;;;5051455;28;20232;-59
2023/09/29 05:02:39;;;;;;;4.27;3.20;;;19.20;99.90;;;;;;5048435;28;20691;-59
2023/09/29 05:05:09;;;;;;;3.93;3.53;;;19.20;99.90;;;;;;5048714;28;20237;-59
2023/09/29 05:07:37;;;;;;;5.27;3.57;;;19.20;99.90;;;;;;5044730;28;20271;-59
2023/09/29 05:10:06;;;;;;;4.37;3.10;;;19.20;99.90;;;;;;5048126;28;20190;-59
2023/09/29 05:12:35;;;;;;;3.37;3.17;;;19.20;99.90;;;;;;5046561;28;20679;-59
2023/09/29 05:15:04;;;;;;;4.83;2.97;;;19.30;99.90;;;;;;5049295;28;20224;-59
2023/09/29 05:17:32;;;;;;;5.27;3.20;;;19.20;99.90;;;;;;5044753;28;20262;-60
2023/09/29 05:20:21;;;;;;;2.97;2.77;;;19.20;99.90;;;;;;5047906;28;20213;-60
2023/09/29 05:22:50;;;;;;;5.80;2.93;;;19.20;99.90;;;;;;5049981;28;20308;-59
2023/09/29 05:25:18;;;;;;;3.20;3.00;;;19.20;99.90;;;;;;5049925;28;20208;-58
2023/09/29 05:27:46;;;;;;;3.10;2.80;;;19.30;99.90;;;;;;5051322;28;20539;-59
2023/09/29 05:30:18;;;;;;;3.80;2.83;;;19.20;99.90;;;;;;5051444;28;20244;-60
2023/09/29 05:32:47;;;;;;;3.07;2.77;;;19.20;99.90;;;;;;5047720;28;20590;-61
2023/09/29 05:35:19;;;;;;;3.50;3.07;;;19.30;99.90;;;;;;5049719;28;20229;-59
2023/09/29 05:37:50;;;;;;;7.43;3.03;;;19.30;99.90;;;;;;5049811;28;20316;-59
2023/09/29 05:40:22;;;;;;;3.17;2.87;;;19.30;99.90;;;;;;5047309;28;20722;-59
2023/09/29 05:42:51;;;;;;;6.20;3.10;;;19.30;99.90;;;;;;5049579;28;20279;-60
2023/09/29 05:45:24;;;;;;;3.50;2.90;;;19.20;99.90;;;;;;5051196;28;20275;-59
2023/09/29 05:48:02;;;;;;;4.00;2.70;;;19.30;99.90;;;;;;5046781;28;20594;-60
2023/09/29 05:50:31;;;;;;;2.80;2.60;;;19.30;99.90;;;;;;5047022;28;20232;-60
2023/09/29 05:53:01;;;;;;;2.67;2.50;;;19.30;99.90;;;;;;5049827;28;20274;-60
2023/09/29 05:55:38;;;;;;;2.73;2.50;;;19.40;99.90;;;;;;5047855;28;20772;-59
2023/09/29 05:58:07;;;;;;;2.80;2.60;;;19.40;99.90;;;;;;5048113;28;20227;-59
2023/09/29 06:00:36;;;;;;;3.90;2.60;;;19.40;99.90;;;;;;5049459;28;20216;-59
2023/09/29 06:03:05;;;;;;;3.07;2.47;;;19.40;99.90;;;;;;5049997;28;20209;-60
2023/09/29 06:05:35;;;;;;;2.73;2.53;;;19.40;99.90;;;;;;5048782;28;20228;-60
2023/09/29 06:08:07;;;;;;;6.93;2.80;;;19.40;99.90;;;;;;5048567;28;20586;-60
2023/09/29 06:10:35;;;;;;;5.87;2.60;;;19.40;99.90;;;;;;5049525;28;20227;-59
2023/09/29 06:13:03;;;;;;;3.97;2.50;;;19.40;99.90;;;;;;5043065;28;20193;-60
2023/09/29 06:15:33;;;;;;;3.67;2.50;;;19.40;99.90;;;;;;5047887;28;20906;-59
2023/09/29 06:18:01;;;;;;;2.60;2.50;;;19.40;99.90;;;;;;5042605;28;20306;-59
2023/09/29 06:20:30;;;;;;;5.37;2.50;;;19.40;99.90;;;;;;5045286;28;20226;-59
2023/09/29 06:22:58;;;;;;;6.60;2.80;;;19.40;99.90;;;;;;5047797;28;20232;-59
2023/09/29 06:25:28;;;;;;;4.53;2.60;;;19.40;99.90;;;;;;5046024;28;20189;-59
2023/09/29 06:27:56;;;;;;;2.83;2.57;;;19.40;99.90;;;;;;5045042;28;20197;-59
2023/09/29 06:30:24;;;;;;;4.13;2.50;;;19.40;99.90;;;;;;5043761;28;20355;-60
2023/09/29 06:32:53;;;;;;;5.40;2.60;;;19.40;99.90;;;;;;5047008;28;20259;-59
2023/09/29 06:35:21;;;;;;;4.77;2.67;;;19.40;99.90;;;;;;5046308;28;20679;-60
2023/09/29 06:37:51;;;;;;;2.60;2.50;;;19.40;99.90;;;;;;5047514;28;20560;-59
2023/09/29 06:40:19;;;;;;;5.60;2.93;;;19.40;99.90;;;;;;5046694;28;20287;-59
2023/09/29 06:42:49;;;;;;;2.40;2.30;;;19.40;99.90;;;;;;5055364;28;20217;-59
2023/09/29 06:45:20;;;;;;;6.93;2.90;;;19.40;99.90;;;;;;5050620;28;20224;-59
2023/09/29 06:47:53;;;;;;;5.50;2.97;;;19.40;99.90;;;;;;5047513;28;20582;-59
2023/09/29 06:50:22;;;;;;;4.17;2.70;;;19.40;99.90;;;;;;5046041;28;20308;-59
2023/09/29 06:52:50;;;;;;;3.70;3.03;;;19.40;99.90;;;;;;5049424;28;20336;-59
2023/09/29 06:55:19;;;;;;;5.63;2.80;;;19.40;99.90;;;;;;5036961;28;20220;-59
2023/09/29 06:57:49;;;;;;;4.03;2.90;;;19.30;99.90;;;;;;5050596;28;20657;-60
2023/09/29 07:00:17;;;;;;;3.27;2.97;;;19.40;99.90;;;;;;5048289;28;20577;-59
2023/09/29 07:02:47;;;;;;;6.53;2.47;;;19.50;99.90;;;;;;5052228;28;20269;-59
2023/09/29 07:05:15;;;;;;;2.57;2.37;;;19.60;99.90;;;;;;5048009;28;20284;-60
2023/09/29 07:07:44;;;;;;;2.70;2.50;;;19.50;99.90;;;;;;5049144;28;20308;-59
2023/09/29 07:10:12;;;;;;;3.20;2.40;;;19.60;99.90;;;;;;5048614;28;20186;-59
2023/09/29 07:12:41;;;;;;;7.43;3.30;;;19.80;99.90;;;;;;5045591;28;20756;-60
2023/09/29 07:15:11;;;;;;;7.00;2.97;;;19.70;99.90;;;;;;5048705;28;20221;-60
2023/09/29 07:17:41;;;;;;;4.37;2.60;;;19.70;99.90;;;;;;5032738;28;20232;-59
2023/09/29 07:20:13;;;;;;;11.33;2.90;;;19.70;99.90;;;;;;5045541;28;20224;-60
2023/09/29 07:22:41;;;;;;;3.00;2.73;;;19.70;99.90;;;;;;5051038;28;20231;-59
2023/09/29 07:25:10;;;;;;;2.87;2.63;;;19.80;99.90;;;;;;5044588;28;20197;-59
2023/09/29 07:27:39;;;;;;;5.27;2.50;;;19.70;99.90;;;;;;5045460;28;20300;-58
2023/09/29 07:30:09;;;;;;;2.70;2.50;;;19.80;99.90;;;;;;5039092;28;20279;-60
2023/09/29 07:32:41;;;;;;;4.20;3.00;;;19.80;99.90;;;;;;5043436;28;20232;-60
2023/09/29 07:35:10;;;;;;;5.67;2.60;;;19.80;99.90;;;;;;5044576;28;20227;-59
2023/09/29 07:37:41;;;;;;;6.60;3.10;;;20.00;99.90;;;;;;5041680;28;20233;-59
2023/09/29 07:40:10;;;;;;;3.07;2.73;;;20.30;94.00;;;;;;5043748;28;20223;-60
2023/09/29 07:42:39;;;;;;;4.43;2.73;;;20.50;88.90;;;;;;5043929;28;20217;-60
2023/09/29 07:45:08;;;;;;;5.37;2.67;;;20.60;74.20;;;;;;5022970;28;20234;-59
2023/09/29 07:47:41;;;;;;;3.67;2.80;;;20.80;74.50;;;;;;5042351;28;20225;-59
2023/09/29 07:50:11;;;;;;;4.43;3.00;;;21.00;60.80;;;;;;5048384;28;20228;-60
2023/09/29 07:52:40;;;;;;;3.77;2.70;;;21.20;56.30;;;;;;5039882;28;20231;-60
2023/09/29 07:55:09;;;;;;;3.97;2.67;;;21.40;33.50;;;;;;5043595;28;20190;-60
2023/09/29 07:57:38;;;;;;;5.20;2.93;;;21.50;31.90;;;;;;5042987;28;20264;-63
2023/09/29 08:00:09;;;;;;;6.93;3.20;;;21.50;24.80;;;;;;5044277;28;20611;-60
2023/09/29 08:02:37;;;;;;;9.93;3.50;;;21.40;3.90;;;;;;5045044;28;20580;-59
2023/09/29 08:05:07;;;;;;;8.67;3.50;;;21.40;8.90;;;;;;5047230;28;20429;-60
2023/09/29 08:07:38;;;;;;;9.20;3.30;;;21.40;5.40;;;;;;5040179;28;20454;-59
2023/09/29 08:10:09;;;;;;;5.03;3.00;;;21.30;36.30;;;;;;5043072;28;20217;-60
2023/09/29 08:12:38;;;;;;;5.87;3.17;;;21.10;65.90;;;;;;5051289;28;20299;-59
2023/09/29 08:15:10;;;;;;;5.73;3.03;;;20.90;86.70;;;;;;5043166;28;20234;-59
2023/09/29 08:17:41;;;;;;;7.50;3.30;;;20.60;98.30;;;;;;5044903;28;20684;-60
2023/09/29 08:20:14;;;;;;;6.50;3.10;;;20.60;99.90;;;;;;5030434;28;20220;-61
2023/09/29 08:22:45;;;;;;;5.10;3.03;;;20.50;99.90;;;;;;5036913;28;20250;-62
2023/09/29 08:25:19;;;;;;;6.07;2.87;;;20.50;99.90;;;;;;5021560;28;20192;-58
2023/09/29 08:27:48;;;;;;;9.57;3.23;;;20.30;99.90;;;;;;5056032;28;20235;-59
2023/09/29 08:30:17;;;;;;;5.57;3.30;;;20.20;99.90;;;;;;5050076;28;20590;-59
2023/09/29 08:32:46;;;;;;;6.30;3.30;;;20.20;99.90;;;;;;5044462;28;20243;-59
2023/09/29 08:35:19;;;;;;;8.53;3.40;;;20.30;99.90;;;;;;5046312;28;20231;-59
2023/09/29 08:37:49;;;;;;;7.80;3.20;;;20.30;99.90;;;;;;5046333;28;20225;-59
2023/09/29 08:40:17;;;;;;;5.90;3.03;;;20.40;99.90;;;;;;5048120;28;20199;-58
2023/09/29 08:42:49;;;;;;;7.17;3.30;;;20.40;99.90;;;;;;5047152;28;20200;-59
2023/09/29 08:45:19;;;;;;;5.07;3.30;;;20.60;99.90;;;;;;5044260;28;20222;-59
2023/09/29 08:47:52;;;;;;;4.80;3.10;;;20.70;99.90;;;;;;5049003;28;20270;-59
2023/09/29 08:50:24;;;;;;;5.03;3.03;;;20.80;99.90;;;;;;5044158;28;20217;-59
2023/09/29 08:52:55;;;;;;;6.13;2.93;;;20.80;97.10;;;;;;5041378;28;20321;-58
2023/09/29 08:55:24;;;;;;;3.63;2.77;;;20.70;99.90;;;;;;5053082;28;20185;-59
2023/09/29 08:57:54;;;;;;;6.07;2.97;;;20.50;99.90;;;;;;5038881;28;20239;-59
2023/09/29 09:00:24;;;;;;;5.13;2.93;;;20.40;99.90;;;;;;5047066;28;20237;-59
2023/09/29 09:02:54;;;;;;;4.30;2.70;;;20.40;99.90;;;;;;5044717;28;20272;-60
2023/09/29 09:05:23;;;;;;;6.50;2.70;;;20.50;99.90;;;;;;5051542;28;20225;-59
2023/09/29 09:07:54;;;;;;;4.73;2.67;;;20.60;99.90;;;;;;5044312;28;20307;-59
2023/09/29 09:10:31;;;;;;;3.83;2.67;;;20.60;99.90;;;;;;5048444;28;20284;-59
2023/09/29 09:13:01;;;;;;;2.70;2.50;;;20.80;99.90;;;;;;5046743;28;20720;-59
2023/09/29 09:15:30;;;;;;;2.93;2.23;;;20.90;99.90;;;;;;5050117;28;20221;-59
2023/09/29 09:18:01;;;;;;;5.97;2.47;;;20.90;99.90;;;;;;5029109;28;20241;-59
2023/09/29 09:20:30;;;;;;;4.83;2.10;;;21.00;99.90;;;;;;5025293;28;20226;-59
2023/09/29 09:23:01;;;;;;;4.03;2.53;;;21.00;99.90;;;;;;5026750;28;20956;-59
2023/09/29 09:25:38;;;;;;;2.43;2.23;;;21.00;95.70;;;;;;5024901;28;20214;-59
2023/09/29 09:28:07;;;;;;;6.87;2.57;;;20.90;99.00;;;;;;5028165;28;20249;-59
2023/09/29 09:30:37;;;;;;;3.07;2.30;;;20.80;99.90;;;;;;5030679;28;20268;-59
2023/09/29 09:33:07;;;;;;;4.10;2.53;;;20.80;99.90;;;;;;5025762;28;20268;-59
2023/09/29 09:35:38;;;;;;;5.33;2.63;;;20.70;99.90;;;;;;5028479;28;20261;-59
2023/09/29 09:38:08;;;;;;;3.80;2.55;;;20.80;99.90;;;;;;5024818;28;20427;-59
2023/09/29 09:40:37;;;;;;;4.10;2.17;;;20.90;99.90;;;;;;5022918;28;20247;-59
2023/09/29 09:43:08;;;;;;;3.30;3.00;;;20.80;99.90;;;;;;5024146;28;20194;-59
2023/09/29 09:45:39;;;;;;;9.67;3.57;;;20.90;99.90;;;;;;5048659;28;20228;-59
2023/09/29 09:48:09;;;;;;;7.37;4.17;;;20.80;99.90;;;;;;5047650;28;20303;-59
2023/09/29 09:50:44;;;;;;;4.60;3.70;;;20.60;99.90;;;;;;5047314;28;20221;-59
2023/09/29 09:53:14;;;;;;;5.43;4.10;;;20.60;99.90;;;;;;5039903;28;20216;-59
2023/09/29 09:55:52;;;;;;;5.03;3.70;;;20.50;99.90;;;;;;5046904;28;20316;-59
2023/09/29 09:58:23;;;;;;;9.43;3.80;;;20.70;99.90;;;;;;5043835;28;20519;-59
2023/09/29 10:00:54;;;;;;;4.53;3.00;;;20.80;99.90;;;;;;5047372;28;20602;-59
2023/09/29 10:03:26;;;;;;;4.93;3.10;;;20.90;99.90;;;;;;5050374;28;20737;-59
2023/09/29 10:05:57;;;;;;;4.83;3.70;;;20.90;99.90;;;;;;5048368;28;20331;-59
2023/09/29 10:08:29;;;;;;;4.43;4.03;;;21.00;99.90;;;;;;5034755;28;20666;-59
2023/09/29 10:11:12;;;;;;;5.37;4.17;;;21.00;99.90;;;;;;5048455;28;20224;-59
2023/09/29 10:13:44;;;;;;;4.57;3.93;;;21.00;99.90;;;;;;5041281;28;20229;-59
2023/09/29 10:16:23;;;;;;;4.93;3.77;;;21.10;99.90;;;;;;5050171;28;20187;-58
2023/09/29 10:18:57;;;;;;;6.70;4.07;;;21.10;99.90;;;;;;5043855;28;20255;-59
2023/09/29 10:21:28;;;;;;;5.93;4.00;;;21.30;99.90;;;;;;5043479;28;20221;-59
2023/09/29 10:24:00;;;;;;;7.50;4.23;;;21.30;99.90;;;;;;5046351;28;20792;-59
2023/09/29 10:26:29;;;;;;;4.33;3.93;;;21.30;99.90;;;;;;5055126;28;20221;-59
2023/09/29 10:29:02;;;;;;;5.43;3.73;;;21.20;99.90;;;;;;5050185;28;20619;-59
2023/09/29 10:31:30;;;;;;;5.55;3.88;;;21.10;99.90;;;;;;5043346;28;20433;-58
2023/09/29 10:34:00;;;;;;;6.47;3.67;;;21.10;99.90;;;;;;5045365;28;20201;-59
2023/09/29 10:36:31;;;;;;;4.60;3.70;;;21.00;99.90;;;;;;5047490;28;20234;-59
2023/09/29 10:39:04;;;;;;;7.13;4.10;;;20.80;99.90;;;;;;5053096;28;20218;-58
2023/09/29 10:41:35;;;;;;;3.30;3.10;;;20.80;99.90;;;;;;5047673;28;20220;-58
2023/09/29 10:44:05;;;;;;;4.00;3.67;;;20.70;99.90;;;;;;5047022;28;21274;-58
2023/09/29 10:46:36;;;;;;;4.03;3.60;;;20.60;99.90;;;;;;5044947;28;20714;-58
2023/09/29 10:49:05;;;;;;;10.40;5.17;;;20.60;99.90;;;;;;5042900;28;20724;-58
2023/09/29 10:51:34;;;;;;;5.83;4.50;;;20.50;99.90;;;;;;5046641;28;20225;-58
2023/09/29 10:54:07;;;;;;;5.47;3.90;;;20.40;99.90;;;;;;5041691;28;20687;-58
2023/09/29 10:56:37;;;;;;;6.23;3.87;;;20.30;99.90;;;;;;5047719;28;20308;-58
2023/09/29 10:59:07;;;;;;;3.20;3.00;;;20.20;99.90;;;;;;5040855;28;20225;-58
2023/09/29 11:01:36;;;;;;;2.80;2.60;;;20.00;99.90;;;;;;5046217;28;20232;-58
2023/09/29 11:04:07;;;;;;;3.00;2.60;;;19.90;99.90;;;;;;5046930;28;20731;-58
2023/09/29 11:06:43;;;;;;;2.10;2.00;;;20.00;99.90;;;;;;5034127;28;20567;-58
2023/09/29 11:09:16;;;;;;;3.40;2.10;;;20.00;99.90;;;;;;5045346;28;20227;-58
2023/09/29 11:11:45;;;;;;;5.60;2.00;;;20.00;99.90;;;;;;5046399;28;20224;-59
2023/09/29 11:14:14;;;;;;;2.17;2.00;;;20.00;99.90;;;;;;5041926;28;20225;-58
2023/09/29 11:16:42;;;;;;;3.13;1.93;;;20.00;99.90;;;;;;5030472;28;20301;-58
2023/09/29 11:19:12;;;;;;;2.03;1.90;;;19.90;99.90;;;;;;5042119;28;20192;-58
2023/09/29 11:21:41;;;;;;;5.20;2.03;;;19.90;99.90;;;;;;5039370;28;20336;-58
2023/09/29 11:24:11;;;;;;;4.33;2.17;;;19.80;99.90;;;;;;5043100;28;20252;-58
2023/09/29 11:26:41;;;;;;;8.03;1.80;;;19.60;99.90;;;;;;5040825;28;20233;-59
2023/09/29 11:29:22;;;;;;;2.00;1.23;;;19.50;99.90;;;;;;5043456;28;20216;-58
2023/09/29 11:31:51;;;;;;;4.40;1.30;;;19.40;99.90;;;;;;5050191;28;20278;-58
2023/09/29 11:34:20;;;;;;;3.60;1.47;;;19.30;99.90;;;;;;5036916;28;20193;-58
2023/09/29 11:36:49;;;;;;;3.80;1.50;;;19.30;99.90;;;;;;5043228;28;20224;-58
2023/09/29 11:39:19;;;;;;;4.90;1.80;;;19.30;99.90;;;;;;5045758;28;20220;-58
2023/09/29 11:41:49;;;;;;;3.67;1.57;;;19.20;99.90;;;;;;5044592;28;20312;-58
2023/09/29 11:44:18;;;;;;;5.67;1.83;;;19.20;99.90;;;;;;5045491;28;20259;-58
2023/09/29 11:46:47;;;;;;;5.10;1.27;;;19.10;99.90;;;;;;5037803;28;20229;-58
2023/09/29 11:49:15;;;;;;;4.47;1.63;;;19.10;99.90;;;;;;5042866;28;20214;-58
2023/09/29 11:51:44;;;;;;;4.30;1.30;;;19.20;99.90;;;;;;5048581;28;20197;-58
2023/09/29 11:54:13;;;;;;;2.53;1.73;;;19.40;99.90;;;;;;5048895;28;20223;-58
2023/09/29 11:56:41;;;;;;;5.27;1.60;;;19.50;99.90;;;;;;5046389;28;20232;-58
2023/09/29 11:59:11;;;;;;;1.40;1.30;;;19.80;99.90;;;;;;5045346;28;20221;-59
2023/09/29 12:01:40;;;;;;;4.17;1.50;;;19.90;99.90;;;;;;5044945;28;20236;-58
2023/09/29 12:04:08;;;;;;;4.90;1.57;;;19.90;99.90;;;;;;5041977;28;20247;-59
2023/09/29 12:06:39;;;;;;;1.20;1.20;;;19.80;99.90;;;;;;5055544;28;20216;-58
2023/09/29 12:09:07;;;;;;;2.67;1.93;;;19.80;99.90;;;;;;5042624;28;20266;-58
2023/09/29 12:11:35;;;;;;;3.53;1.40;;;19.70;99.90;;;;;;5042724;28;20225;-58
2023/09/29 12:14:08;;;;;;;2.83;1.40;;;19.60;99.90;;;;;;5041074;28;20317;-58
2023/09/29 12:16:38;;;;;;;4.37;1.60;;;19.50;99.90;;;;;;5046716;28;20224;-58
2023/09/29 12:19:06;;;;;;;2.13;1.70;;;19.40;99.90;;;;;;5045403;28;20284;-58
2023/09/29 12:21:34;;;;;;;4.90;1.97;;;19.40;99.90;;;;;;5041141;28;20232;-58
2023/09/29 12:24:04;;;;;;;5.07;1.90;;;19.60;99.90;;;;;;5045290;28;20312;-59
2023/09/29 12:26:33;;;;;;;3.73;1.80;;;19.70;99.90;;;;;;5046894;28;20228;-58
2023/09/29 12:29:01;;;;;;;4.20;1.93;;;19.80;99.90;;;;;;5041755;28;20220;-58
2023/09/29 12:31:32;;;;;;;3.07;1.60;;;20.00;99.00;;;;;;5042125;28;20225;-58
2023/09/29 12:34:04;;;;;;;4.87;2.00;;;20.10;96.50;;;;;;5040025;28;20200;-58
2023/09/29 12:36:32;;;;;;;5.03;1.90;;;20.10;96.60;;;;;;5045933;28;20213;-58
2023/09/29 12:39:01;;;;;;;2.43;2.10;;;20.00;94.50;;;;;;5047205;28;20236;-59
2023/09/29 12:41:30;;;;;;;2.97;2.03;;;19.90;98.50;;;;;;5043154;28;20571;-58
2023/09/29 12:43:58;;;;;;;4.80;2.20;;;19.70;96.80;;;;;;5049743;28;20237;-58
2023/09/29 12:46:26;;;;;;;4.93;2.23;;;19.70;99.90;;;;;;5047553;28;20687;-58
2023/09/29 12:48:55;;;;;;;5.77;2.50;;;19.70;97.70;;;;;;5050429;28;20223;-58
2023/09/29 12:51:25;;;;;;;2.47;2.27;;;19.70;93.00;;;;;;5047438;28;20303;-58
2023/09/29 12:53:56;;;;;;;6.30;2.20;;;19.70;91.90;;;;;;5049319;28;20264;-58
2023/09/29 12:56:27;;;;;;;3.67;2.30;;;19.70;93.80;;;;;;5051246;28;20709;-57
2023/09/29 12:58:55;;;;;;;6.30;2.40;;;19.70;93.80;;;;;;5034877;28;20227;-59
2023/09/29 13:01:25;;;;;;;3.43;2.30;;;19.70;98.60;;;;;;5058193;28;20712;-58